^^
B2 Weather Station Historical Data
Daily Summary for January 26, 2019 Units:  English    Metric   Both
Daily Weekly Monthly Yearly Custom
  High: Low: Average:
Temperature: 14.9 °F -5.9 °F 6.3 °F
Dew Point: 12.5 °F -10.0 °F 2.6 °F
Humidity: 90% 76% 84%
Wind Speed: 19.6mph 0.0mph 4.5mph
Wind Gust: 9.1mph - -
Wind- - WSW
Pressure: 30.29 in 30.00 in -
Precipitation: 0.07 in    
Historical Graphs
 
 
Tabular Data for January 26, 2019
Time Temperature Dew Point Pressure Wind Wind Speed Wind Gust Humidity Rainfall Rate (Hourly) solar
00:04 8.2 °F 5.1 °F 30.26 in NNW 3.5 mph 2.8 mph 87% 0.00 in 0.00 W/m2
00:09 8.1 °F 4.8 °F 30.26 in NNW 5.8 mph 5.3 mph 86% 0.00 in 0.00 W/m2
00:14 7.9 °F 4.6 °F 30.25 in NNW 8.1 mph 5.6 mph 86% 0.00 in 0.00 W/m2
00:19 7.7 °F 4.4 °F 30.25 in NNW 7.0 mph 5.6 mph 86% 0.00 in 0.00 W/m2
00:24 7.5 °F 3.9 °F 30.25 in North 6.9 mph 5.0 mph 85% 0.00 in 0.00 W/m2
00:29 7.4 °F 3.8 °F 30.25 in NNW 8.0 mph 5.7 mph 85% 0.00 in 0.00 W/m2
00:34 7.4 °F 3.8 °F 30.25 in North 5.0 mph 4.1 mph 85% 0.00 in 0.00 W/m2
00:39 7.3 °F 3.7 °F 30.25 in North 5.8 mph 4.4 mph 85% 0.00 in 0.00 W/m2
00:44 7.3 °F 3.7 °F 30.25 in North 5.8 mph 4.5 mph 85% 0.00 in 0.00 W/m2
00:49 7.2 °F 3.6 °F 30.25 in North 5.8 mph 5.1 mph 85% 0.00 in 0.00 W/m2
00:54 7.1 °F 3.5 °F 30.25 in NNW 6.9 mph 3.9 mph 85% 0.00 in 0.00 W/m2
00:59 7.0 °F 3.4 °F 30.26 in North 8.1 mph 6.6 mph 85% 0.00 in 0.00 W/m2
01:04 6.9 °F 3.3 °F 30.26 in North 9.2 mph 5.6 mph 85% 0.00 in 0.00 W/m2
01:09 6.8 °F 3.2 °F 30.26 in NNE 8.1 mph 4.6 mph 85% 0.00 in 0.00 W/m2
01:14 6.6 °F 2.8 °F 30.26 in North 9.2 mph 6.2 mph 84% 0.00 in 0.00 W/m2
01:19 6.4 °F 2.6 °F 30.26 in NNW 6.9 mph 4.5 mph 84% 0.00 in 0.00 W/m2
01:24 6.4 °F 2.6 °F 30.26 in North 5.8 mph 3.8 mph 84% 0.00 in 0.00 W/m2
01:29 6.4 °F 2.6 °F 30.26 in North 5.8 mph 5.2 mph 84% 0.00 in 0.00 W/m2
01:34 6.3 °F 2.5 °F 30.27 in North 8.1 mph 6.2 mph 84% 0.00 in 0.00 W/m2
01:39 6.0 °F 2.2 °F 30.27 in North 8.1 mph 5.5 mph 84% 0.00 in 0.00 W/m2
01:44 5.8 °F 2.0 °F 30.27 in North 8.1 mph 5.1 mph 84% 0.00 in 0.00 W/m2
01:49 5.4 °F 1.6 °F 30.27 in North 8.1 mph 6.5 mph 84% 0.00 in 0.00 W/m2
01:54 4.9 °F 0.9 °F 30.27 in North 8.1 mph 7.0 mph 83% 0.00 in 0.00 W/m2
01:59 4.4 °F 0.4 °F 30.27 in North 7.0 mph 5.5 mph 83% 0.00 in 0.00 W/m2
02:04 3.7 °F -0.6 °F 30.27 in North 8.1 mph 4.6 mph 82% 0.00 in 0.00 W/m2
02:09 3.0 °F -1.0 °F 30.27 in North 5.8 mph 3.2 mph 83% 0.00 in 0.00 W/m2
02:14 2.5 °F -1.5 °F 30.27 in NNW 6.0 mph 3.3 mph 83% 0.00 in 0.00 W/m2
02:19 1.9 °F -2.1 °F 30.27 in NNW 3.5 mph 1.8 mph 83% 0.00 in 0.00 W/m2
02:24 1.5 °F -2.5 °F 30.27 in NW 3.5 mph 2.2 mph 83% 0.00 in 0.00 W/m2
02:29 1.1 °F -2.9 °F 30.27 in NNW 3.5 mph 2.3 mph 83% 0.00 in 0.00 W/m2
02:34 0.8 °F -3.2 °F 30.27 in NNW 4.6 mph 2.6 mph 83% 0.00 in 0.00 W/m2
02:39 0.4 °F -3.3 °F 30.27 in NW 4.6 mph 3.0 mph 84% 0.00 in 0.00 W/m2
02:44 0.1 °F -3.6 °F 30.27 in North 3.5 mph 3.0 mph 84% 0.00 in 0.00 W/m2
02:49 -0.2 °F -3.9 °F 30.27 in NNW 4.6 mph 2.6 mph 84% 0.00 in 0.00 W/m2
02:54 -0.4 °F -4.1 °F 30.27 in NNW 3.5 mph 2.2 mph 84% 0.00 in 0.00 W/m2
02:59 -0.7 °F -4.4 °F 30.27 in North 3.5 mph 1.7 mph 84% 0.00 in 0.00 W/m2
03:04 -0.8 °F -4.5 °F 30.27 in NW 3.5 mph 1.7 mph 84% 0.00 in 0.00 W/m2
03:09 -0.9 °F -4.6 °F 30.28 in NW 3.5 mph 1.6 mph 84% 0.00 in 0.00 W/m2
03:14 -1.0 °F -4.7 °F 30.28 in NW 3.5 mph 1.8 mph 84% 0.00 in 0.00 W/m2
03:19 -1.2 °F -4.9 °F 30.28 in NW 4.6 mph 3.1 mph 84% 0.00 in 0.00 W/m2
03:24 -1.5 °F -5.2 °F 30.28 in WNW 4.6 mph 3.4 mph 84% 0.00 in 0.00 W/m2
03:30 -1.7 °F -5.4 °F 30.28 in NNW 3.5 mph 1.7 mph 84% 0.00 in 0.00 W/m2
03:34 -1.8 °F -5.2 °F 30.28 in North 3.5 mph 2.4 mph 85% 0.00 in 0.00 W/m2
03:39 -1.8 °F -5.2 °F 30.28 in NNW 2.3 mph 2.0 mph 85% 0.00 in 0.00 W/m2
03:44 -2.0 °F -5.4 °F 30.28 in NNW 3.5 mph 2.6 mph 85% 0.00 in 0.00 W/m2
03:49 -2.1 °F -5.5 °F 30.28 in North 3.5 mph 3.1 mph 85% 0.00 in 0.00 W/m2
03:54 -2.3 °F -5.7 °F 30.28 in NW 3.5 mph 2.6 mph 85% 0.00 in 0.00 W/m2
03:59 -2.6 °F -6.0 °F 30.28 in NW 5.8 mph 3.2 mph 85% 0.00 in 0.00 W/m2
04:04 -2.8 °F -6.2 °F 30.28 in NNW 3.5 mph 2.5 mph 85% 0.00 in 0.00 W/m2
04:09 -2.9 °F -6.3 °F 30.28 in NNW 3.5 mph 3.1 mph 85% 0.00 in 0.00 W/m2
04:14 -3.1 °F -6.5 °F 30.28 in NW 3.5 mph 1.3 mph 85% 0.00 in 0.00 W/m2
04:19 -3.2 °F -6.6 °F 30.28 in NW 4.6 mph 2.9 mph 85% 0.00 in 0.00 W/m2
04:24 -3.3 °F -6.7 °F 30.28 in NW 3.5 mph 2.6 mph 85% 0.00 in 0.00 W/m2
04:29 -3.5 °F -6.9 °F 30.28 in WNW 3.5 mph 1.3 mph 85% 0.00 in 0.00 W/m2
04:34 -3.7 °F -7.1 °F 30.28 in North 3.5 mph 1.9 mph 85% 0.00 in 0.00 W/m2
04:39 -3.8 °F -7.2 °F 30.28 in WNW 4.0 mph 2.1 mph 85% 0.00 in 0.00 W/m2
04:44 -3.9 °F -7.3 °F 30.28 in NW 3.5 mph 2.4 mph 85% 0.00 in 0.00 W/m2
04:49 -3.9 °F -7.3 °F 30.28 in North 3.5 mph 1.4 mph 85% 0.00 in 0.00 W/m2
04:54 -3.9 °F -7.3 °F 30.29 in NW 3.5 mph 2.0 mph 85% 0.00 in 0.00 W/m2
04:59 -3.7 °F -6.8 °F 30.28 in NW 3.5 mph 3.3 mph 86% 0.00 in 0.00 W/m2
05:04 -3.6 °F -6.7 °F 30.28 in NW 3.5 mph 2.9 mph 86% 0.00 in 0.00 W/m2
05:09 -3.6 °F -6.7 °F 30.28 in North 3.5 mph 3.7 mph 86% 0.00 in 0.00 W/m2
05:14 -3.7 °F -6.8 °F 30.28 in WNW 2.3 mph 1.5 mph 86% 0.00 in 0.00 W/m2
05:19 -3.9 °F -7.3 °F 30.28 in WNW 2.3 mph 1.2 mph 85% 0.00 in 0.00 W/m2
05:24 -4.0 °F -7.4 °F 30.28 in North 2.3 mph 1.6 mph 85% 0.00 in 0.00 W/m2
05:29 -4.3 °F -7.7 °F 30.28 in Calm     85% 0.00 in 0.00 W/m2
05:34 -4.4 °F -7.8 °F 30.28 in North 1.0 mph 0.2 mph 85% 0.00 in 0.00 W/m2
05:39 -4.5 °F -7.9 °F 30.28 in West 1.2 mph 0.2 mph 85% 0.00 in 0.00 W/m2
05:44 -4.5 °F -7.9 °F 30.28 in North 1.2 mph 0.8 mph 85% 0.00 in 0.00 W/m2
05:49 -4.5 °F -7.9 °F 30.28 in West 2.3 mph 1.2 mph 85% 0.00 in 0.00 W/m2
05:54 -4.4 °F -7.5 °F 30.28 in WNW 3.5 mph 0.5 mph 86% 0.00 in 0.00 W/m2
05:59 -4.3 °F -7.7 °F 30.28 in WNW 2.0 mph 1.1 mph 85% 0.00 in 0.00 W/m2
06:04 -4.3 °F -7.4 °F 30.28 in North 3.5 mph 1.1 mph 86% 0.00 in 0.00 W/m2
06:09 -4.5 °F -7.9 °F 30.28 in North 3.5 mph 2.1 mph 85% 0.00 in 0.00 W/m2
06:14 -4.5 °F -7.9 °F 30.29 in West 2.3 mph 1.5 mph 85% 0.00 in 0.00 W/m2
06:19 -4.6 °F -8.0 °F 30.29 in West 2.3 mph 1.1 mph 85% 0.00 in 0.00 W/m2
06:24 -4.7 °F -8.1 °F 30.29 in North 3.0 mph 1.3 mph 85% 0.00 in 0.00 W/m2
06:29 -4.8 °F -8.2 °F 30.29 in West 3.5 mph 0.8 mph 85% 0.00 in 0.00 W/m2
06:34 -4.7 °F -8.1 °F 30.29 in West 4.0 mph 3.1 mph 85% 0.00 in 0.00 W/m2
06:39 -4.6 °F -8.0 °F 30.29 in West 2.3 mph 0.8 mph 85% 0.00 in 0.00 W/m2
06:44 -4.5 °F -7.9 °F 30.29 in West 1.2 mph 0.3 mph 85% 0.00 in 0.00 W/m2
06:49 -4.5 °F -7.9 °F 30.29 in Calm     85% 0.00 in 0.00 W/m2
06:54 -4.5 °F -7.9 °F 30.29 in Calm     85% 0.00 in 0.00 W/m2
06:59 -4.5 °F -8.1 °F 30.28 in Calm     84% 0.00 in 0.00 W/m2
07:04 -4.6 °F -8.2 °F 30.28 in Calm     84% 0.00 in 0.00 W/m2
07:09 -4.7 °F -8.3 °F 30.28 in Calm     84% 0.00 in 0.00 W/m2
07:14 -5.1 °F -8.9 °F 30.28 in Calm     83% 0.00 in 7.00 W/m2
07:19 -5.7 °F -9.8 °F 30.27 in Calm     82% 0.00 in 12.00 W/m2
07:24 -5.9 °F -10.0 °F 30.27 in Calm     82% 0.00 in 19.00 W/m2
07:29 -5.9 °F -10.0 °F 30.27 in Calm     82% 0.00 in 26.00 W/m2
07:34 -5.7 °F -9.5 °F 30.27 in Calm     83% 0.00 in 32.00 W/m2
07:39 -5.3 °F -9.1 °F 30.27 in Calm     83% 0.00 in 39.00 W/m2
07:44 -4.8 °F -8.6 °F 30.27 in Calm     83% 0.00 in 44.00 W/m2
07:49 -3.9 °F -7.5 °F 30.27 in Calm     84% 0.00 in 49.00 W/m2
07:54 -3.0 °F -6.6 °F 30.27 in Calm     84% 0.00 in 54.00 W/m2
07:59 -1.9 °F -5.3 °F 30.27 in Calm     85% 0.00 in 62.00 W/m2
08:04 -0.7 °F -4.1 °F 30.27 in Calm     85% 0.00 in 67.00 W/m2
08:09 -0.2 °F -3.9 °F 30.27 in Calm     84% 0.00 in 72.00 W/m2
08:14 -0.5 °F -4.7 °F 30.27 in Calm     82% 0.00 in 79.00 W/m2
08:19 -0.6 °F -4.8 °F 30.27 in Calm     82% 0.00 in 86.00 W/m2
08:24 -0.4 °F -4.6 °F 30.27 in Calm     82% 0.00 in 93.00 W/m2
08:29 -0.1 °F -4.0 °F 30.27 in Calm     83% 0.00 in 88.00 W/m2
08:34 0.0 °F -4.2 °F 30.27 in Calm     82% 0.00 in 90.00 W/m2
08:39 0.1 °F -4.1 °F 30.26 in Calm     82% 0.00 in 111.00 W/m2
08:44 0.3 °F -3.9 °F 30.26 in NW 2.3 mph 0.5 mph 82% 0.00 in 128.00 W/m2
08:49 0.4 °F -4.1 °F 30.26 in NW 1.2 mph 0.2 mph 81% 0.00 in 132.00 W/m2
08:54 0.4 °F -4.3 °F 30.26 in NW 1.2 mph 0.2 mph 80% 0.00 in 90.00 W/m2
08:59 0.3 °F -4.4 °F 30.26 in NW 2.3 mph 0.6 mph 80% 0.00 in 95.00 W/m2
09:04 0.3 °F -4.4 °F 30.26 in NW 2.3 mph 1.0 mph 80% 0.00 in 141.00 W/m2
09:09 0.6 °F -3.9 °F 30.26 in Calm     81% 0.00 in 118.00 W/m2
09:14 0.9 °F -3.6 °F 30.26 in Calm     81% 0.00 in 116.00 W/m2
09:19 1.2 °F -3.5 °F 30.25 in Calm     80% 0.00 in 127.00 W/m2
09:24 1.9 °F -2.6 °F 30.25 in Calm     81% 0.00 in 158.00 W/m2
09:29 2.7 °F -2.1 °F 30.25 in Calm     80% 0.00 in 155.00 W/m2
09:34 3.0 °F -2.0 °F 30.26 in Calm     79% 0.00 in 153.00 W/m2
09:39 3.0 °F -2.3 °F 30.26 in North 1.2 mph   78% 0.00 in 178.00 W/m2
09:44 2.9 °F -2.4 °F 30.26 in Calm     78% 0.00 in 188.00 W/m2
09:49 3.1 °F -2.2 °F 30.26 in Calm     78% 0.00 in 192.00 W/m2
09:54 3.2 °F -2.1 °F 30.26 in Calm     78% 0.00 in 193.00 W/m2
09:59 3.1 °F -2.2 °F 30.26 in Calm     78% 0.00 in 213.00 W/m2
10:04 3.0 °F -2.3 °F 30.26 in NNE 1.2 mph 0.1 mph 78% 0.00 in 276.00 W/m2
10:09 3.5 °F -1.6 °F 30.27 in NNE 1.2 mph   79% 0.00 in 206.00 W/m2
10:14 4.4 °F -0.4 °F 30.27 in Calm   0.2 mph 80% 0.00 in 214.00 W/m2
10:19 4.7 °F -0.4 °F 30.26 in East 2.3 mph 0.6 mph 79% 0.00 in 253.00 W/m2
10:24 5.1 °F 0.0 °F 30.26 in SE 3.0 mph 1.9 mph 79% 0.00 in 234.00 W/m2
10:29 5.4 °F 0.3 °F 30.26 in SE 1.2 mph 0.1 mph 79% 0.00 in 248.00 W/m2
10:34 5.8 °F 0.7 °F 30.26 in Calm     79% 0.00 in 258.00 W/m2
10:39 6.4 °F 1.3 °F 30.26 in Calm     79% 0.00 in 272.00 W/m2
10:44 7.0 °F 1.9 °F 30.25 in SE 2.0 mph 1.2 mph 79% 0.00 in 271.00 W/m2
10:49 7.5 °F 2.3 °F 30.25 in SE 3.5 mph 1.9 mph 79% 0.00 in 279.00 W/m2
10:54 7.5 °F 2.1 °F 30.25 in SSW 3.5 mph 0.5 mph 78% 0.00 in 281.00 W/m2
10:59 7.4 °F 1.7 °F 30.25 in South 2.3 mph 0.3 mph 77% 0.00 in 316.00 W/m2
11:05 7.7 °F 2.0 °F 30.25 in SSE 4.0 mph 2.7 mph 77% 0.00 in 320.00 W/m2
11:09 7.9 °F 2.2 °F 30.24 in SSE 3.5 mph 2.3 mph 77% 0.00 in 329.00 W/m2
11:14 8.1 °F 2.4 °F 30.24 in SSE 4.6 mph 3.6 mph 77% 0.00 in 352.00 W/m2
11:19 8.1 °F 2.4 °F 30.23 in SSE 3.5 mph 1.6 mph 77% 0.00 in 415.00 W/m2
11:24 8.0 °F 2.0 °F 30.23 in SSE 6.0 mph 3.6 mph 76% 0.00 in 424.00 W/m2
11:29 8.2 °F 2.8 °F 30.22 in SSE 5.8 mph 4.9 mph 78% 0.00 in 482.00 W/m2
11:34 8.1 °F 2.4 °F 30.22 in South 4.0 mph 2.3 mph 77% 0.00 in 559.00 W/m2
11:39 8.0 °F 2.3 °F 30.21 in South 5.8 mph 2.5 mph 77% 0.00 in 446.00 W/m2
11:44 8.0 °F 2.3 °F 30.21 in South 4.0 mph 2.1 mph 77% 0.00 in 487.00 W/m2
11:49 8.1 °F 2.7 °F 30.20 in South 4.0 mph 2.8 mph 78% 0.00 in 568.00 W/m2
11:54 8.4 °F 2.9 °F 30.20 in South 2.3 mph 0.6 mph 78% 0.00 in 517.00 W/m2
11:59 8.3 °F 2.6 °F 30.20 in South 3.5 mph 2.0 mph 77% 0.00 in 287.00 W/m2
12:04 8.3 °F 2.6 °F 30.20 in SSE 2.3 mph 1.6 mph 77% 0.00 in 290.00 W/m2
12:09 8.4 °F 2.7 °F 30.20 in SE 4.0 mph 2.8 mph 77% 0.00 in 306.00 W/m2
12:14 8.7 °F 3.0 °F 30.19 in SE 4.0 mph 3.3 mph 77% 0.00 in 325.00 W/m2
12:19 9.0 °F 3.5 °F 30.19 in SE 3.5 mph 3.1 mph 78% 0.00 in 327.00 W/m2
12:24 9.0 °F 3.5 °F 30.19 in SSE 4.6 mph 2.3 mph 78% 0.00 in 422.00 W/m2
12:29 9.4 °F 3.9 °F 30.19 in South 3.5 mph 1.7 mph 78% 0.00 in 557.00 W/m2
12:34 9.5 °F 3.7 °F 30.18 in SE 4.6 mph 3.7 mph 77% 0.00 in 615.00 W/m2
12:39 9.9 °F 4.4 °F 30.18 in SSE 6.0 mph 4.7 mph 78% 0.00 in 557.00 W/m2
12:44 9.8 °F 4.0 °F 30.18 in South 5.8 mph 4.2 mph 77% 0.00 in 564.00 W/m2
12:49 9.8 °F 4.0 °F 30.17 in SSE 6.9 mph 3.4 mph 77% 0.00 in 471.00 W/m2
12:54 10.0 °F 4.5 °F 30.17 in SSE 6.0 mph 4.5 mph 78% 0.00 in 512.00 W/m2
12:59 9.8 °F 4.3 °F 30.16 in SSE 8.1 mph 5.7 mph 78% 0.00 in 399.00 W/m2
13:04 9.7 °F 4.2 °F 30.16 in SE 6.0 mph 3.2 mph 78% 0.00 in 538.00 W/m2
13:09 9.9 °F 4.7 °F 30.15 in SSE 4.6 mph 4.7 mph 79% 0.00 in 313.00 W/m2
13:14 9.9 °F 4.4 °F 30.15 in SSW 6.9 mph 2.9 mph 78% 0.00 in 364.00 W/m2
13:19 9.8 °F 4.6 °F 30.15 in South 5.0 mph 4.0 mph 79% 0.00 in 327.00 W/m2
13:25 9.8 °F 4.6 °F 30.14 in SSE 5.8 mph 3.4 mph 79% 0.00 in 367.00 W/m2
13:29 10.0 °F 5.1 °F 30.13 in SE 5.8 mph 5.2 mph 80% 0.00 in 292.00 W/m2
13:34 9.9 °F 5.0 °F 30.12 in SSE 6.9 mph 4.6 mph 80% 0.00 in 281.00 W/m2
13:39 9.8 °F 4.9 °F 30.12 in SSE 7.0 mph 5.3 mph 80% 0.00 in 318.00 W/m2
13:44 9.8 °F 4.9 °F 30.12 in South 5.8 mph 4.7 mph 80% 0.00 in 306.00 W/m2
13:49 9.6 °F 4.7 °F 30.12 in SE 4.6 mph 3.2 mph 80% 0.00 in 320.00 W/m2
13:54 9.8 °F 4.9 °F 30.12 in South 5.8 mph 3.7 mph 80% 0.00 in 320.00 W/m2
13:59 9.9 °F 5.0 °F 30.11 in SSE 4.6 mph 3.8 mph 80% 0.00 in 308.00 W/m2
14:04 10.0 °F 5.3 °F 30.11 in South 8.1 mph 5.3 mph 81% 0.00 in 264.00 W/m2
14:09 10.0 °F 5.1 °F 30.11 in SSE 8.1 mph 8.0 mph 80% 0.00 in 244.00 W/m2
14:14 10.0 °F 5.3 °F 30.10 in SE 7.0 mph 5.0 mph 81% 0.00 in 195.00 W/m2
14:19 10.1 °F 5.4 °F 30.10 in SE 5.8 mph 5.1 mph 81% 0.00 in 199.00 W/m2
14:24 10.1 °F 5.7 °F 30.10 in SSE 6.9 mph 5.7 mph 82% 0.00 in 156.00 W/m2
14:29 10.1 °F 5.7 °F 30.09 in SSE 8.1 mph 5.8 mph 82% 0.00 in 186.00 W/m2
14:34 10.0 °F 5.6 °F 30.09 in ESE 6.9 mph 5.1 mph 82% 0.00 in 190.00 W/m2
14:39 10.2 °F 6.1 °F 30.09 in SSE 6.9 mph 4.8 mph 83% 0.00 in 190.00 W/m2
14:44 10.2 °F 5.8 °F 30.08 in South 5.8 mph 3.5 mph 82% 0.00 in 199.00 W/m2
14:49 10.4 °F 6.3 °F 30.08 in SSW 5.8 mph 2.3 mph 83% 0.00 in 181.00 W/m2
14:54 10.3 °F 5.9 °F 30.08 in SSE 8.1 mph 4.9 mph 82% 0.00 in 156.00 W/m2
14:59 10.3 °F 6.2 °F 30.08 in SSE 5.8 mph 4.5 mph 83% 0.00 in 146.00 W/m2
15:04 10.4 °F 6.3 °F 30.07 in South 4.6 mph 2.8 mph 83% 0.00 in 165.00 W/m2
15:09 10.7 °F 6.8 °F 30.07 in SSE 4.6 mph 2.4 mph 84% 0.00 in 128.00 W/m2
15:14 11.0 °F 7.1 °F 30.06 in ESE 6.9 mph 3.5 mph 84% 0.00 in 105.00 W/m2
15:19 11.1 °F 7.2 °F 30.06 in SE 5.0 mph 5.0 mph 84% 0.00 in 104.00 W/m2
15:24 11.1 °F 7.5 °F 30.05 in SE 6.9 mph 5.0 mph 85% 0.00 in 91.00 W/m2
15:29 10.9 °F 7.3 °F 30.05 in SE 7.0 mph 6.1 mph 85% 0.00 in 84.00 W/m2
15:34 10.9 °F 7.3 °F 30.05 in SE 5.8 mph 4.1 mph 85% 0.00 in 76.00 W/m2
15:39 10.8 °F 7.4 °F 30.06 in SE 6.9 mph 4.0 mph 86% 0.00 in 69.00 W/m2
15:44 10.9 °F 7.5 °F 30.05 in SE 6.0 mph 5.2 mph 86% 0.00 in 62.00 W/m2
15:50 10.9 °F 7.5 °F 30.05 in SE 5.8 mph 4.3 mph 86% 0.00 in 60.00 W/m2
15:54 10.9 °F 7.8 °F 30.05 in SE 3.5 mph 2.6 mph 87% 0.00 in 54.00 W/m2
15:59 10.9 °F 7.8 °F 30.05 in SE 3.5 mph 2.5 mph 87% 0.00 in 46.00 W/m2
16:04 11.0 °F 7.9 °F 30.05 in SE 5.0 mph 3.5 mph 87% 0.00 in 39.00 W/m2
16:09 11.0 °F 7.9 °F 30.05 in SE 4.6 mph 4.5 mph 87% 0.00 in 32.00 W/m2
16:14 11.0 °F 8.1 °F 30.05 in SSE 5.0 mph 3.5 mph 88% 0.00 in 25.00 W/m2
16:19 11.1 °F 8.2 °F 30.05 in SE 3.5 mph 1.6 mph 88% 0.00 in 21.00 W/m2
16:24 11.2 °F 8.3 °F 30.04 in SE 3.5 mph 2.7 mph 88% 0.00 in 18.00 W/m2
16:29 11.2 °F 8.3 °F 30.04 in SE 3.5 mph 2.3 mph 88% 0.00 in 12.00 W/m2
16:34 11.3 °F 8.4 °F 30.04 in SE 3.5 mph 2.1 mph 88% 0.00 in 9.00 W/m2
16:39 11.3 °F 8.4 °F 30.03 in SE 3.5 mph 1.6 mph 88% 0.00 in 5.00 W/m2
16:44 11.3 °F 8.7 °F 30.04 in SE 1.2 mph 0.2 mph 89% 0.01 in 0.00 W/m2
16:49 11.4 °F 8.8 °F 30.04 in SE 2.3 mph 1.3 mph 89% 0.01 in 0.00 W/m2
16:54 11.4 °F 8.8 °F 30.03 in SE 2.3 mph 1.4 mph 89% 0.01 in 0.00 W/m2
16:59 11.5 °F 8.9 °F 30.03 in ESE 3.5 mph 1.5 mph 89% 0.01 in 0.00 W/m2
17:05 11.5 °F 8.9 °F 30.03 in ESE 1.2 mph   89% 0.01 in 0.00 W/m2
17:09 11.6 °F 9.0 °F 30.03 in ESE 1.0 mph 0.3 mph 89% 0.01 in 0.00 W/m2
17:14 11.7 °F 9.1 °F 30.02 in ESE 2.3 mph 0.9 mph 89% 0.01 in 0.00 W/m2
17:19 11.7 °F 9.1 °F 30.02 in ESE 2.3 mph 1.1 mph 89% 0.01 in 0.00 W/m2
17:24 11.8 °F 9.2 °F 30.02 in ESE 1.2 mph 0.2 mph 89% 0.01 in 0.00 W/m2
17:29 11.9 °F 9.3 °F 30.02 in ESE 1.2 mph 0.6 mph 89% 0.01 in 0.00 W/m2
17:34 11.9 °F 9.3 °F 30.01 in East 3.5 mph 1.5 mph 89% 0.01 in 0.00 W/m2
17:40 12.0 °F 9.4 °F 30.00 in ENE 4.0 mph 2.8 mph 89% 0.01 in 0.00 W/m2
17:44 11.9 °F 9.3 °F 30.01 in ENE 3.5 mph 2.6 mph 89% 0.01 in 0.00 W/m2
17:49 11.9 °F 9.3 °F 30.01 in ENE 3.5 mph 1.3 mph 89% 0.01 in 0.00 W/m2
17:55 11.9 °F 9.3 °F 30.01 in ENE 2.3 mph 0.3 mph 89% 0.02 in 0.00 W/m2
17:59 12.1 °F 9.5 °F 30.01 in Calm     89% 0.02 in 0.00 W/m2
18:04 12.2 °F 9.8 °F 30.01 in ENE 2.3 mph 0.9 mph 90% 0.02 in 0.00 W/m2
18:09 12.3 °F 9.9 °F 30.01 in ENE 1.2 mph   90% 0.03 in 0.00 W/m2
18:14 12.4 °F 10.0 °F 30.01 in ENE 2.3 mph   90% 0.03 in 0.00 W/m2
18:19 12.5 °F 10.1 °F 30.01 in ENE 3.5 mph 0.3 mph 90% 0.03 in 0.00 W/m2
18:24 12.6 °F 10.2 °F 30.01 in Calm   0.3 mph 90% 0.04 in 0.00 W/m2
18:29 12.8 °F 10.4 °F 30.00 in East 3.0 mph 2.8 mph 90% 0.04 in 0.00 W/m2
18:34 12.8 °F 10.4 °F 30.01 in Calm     90% 0.04 in 0.00 W/m2
18:39 12.9 °F 10.5 °F 30.01 in Calm     90% 0.03 in 0.00 W/m2
18:44 12.9 °F 10.5 °F 30.01 in Calm     90% 0.03 in 0.00 W/m2
18:49 13.0 °F 10.6 °F 30.01 in East 1.2 mph   90% 0.04 in 0.00 W/m2
18:55 13.1 °F 10.7 °F 30.01 in East 1.2 mph   90% 0.03 in 0.00 W/m2
18:59 13.3 °F 10.9 °F 30.01 in Calm     90% 0.03 in 0.00 W/m2
19:04 13.5 °F 11.1 °F 30.01 in Calm     90% 0.03 in 0.00 W/m2
19:09 13.6 °F 11.0 °F 30.01 in Calm     89% 0.02 in 0.00 W/m2
19:14 13.7 °F 11.1 °F 30.01 in Calm     89% 0.02 in 0.00 W/m2
19:19 13.9 °F 11.3 °F 30.01 in Calm     89% 0.03 in 0.00 W/m2
19:24 14.0 °F 11.4 °F 30.02 in Calm     89% 0.02 in 0.00 W/m2
19:29 14.0 °F 11.4 °F 30.02 in Calm     89% 0.02 in 0.00 W/m2
19:34 14.0 °F 11.4 °F 30.01 in Calm     89% 0.02 in 0.00 W/m2
19:39 14.0 °F 11.4 °F 30.01 in Calm     89% 0.02 in 0.00 W/m2
19:44 14.0 °F 11.4 °F 30.01 in Calm     89% 0.02 in 0.00 W/m2
19:49 14.1 °F 11.5 °F 30.01 in Calm     89% 0.01 in 0.00 W/m2
19:54 14.1 °F 11.5 °F 30.01 in Calm     89% 0.01 in 0.00 W/m2
19:59 14.1 °F 11.5 °F 30.01 in Calm   0.7 mph 89% 0.01 in 0.00 W/m2
20:04 14.3 °F 11.7 °F 30.01 in Calm     89% 0.01 in 0.00 W/m2
20:09 14.5 °F 12.1 °F 30.01 in West 2.3 mph 1.2 mph 90% 0.01 in 0.00 W/m2
20:14 14.8 °F 12.4 °F 30.01 in West 4.0 mph 2.3 mph 90% 0.01 in 0.00 W/m2
20:19 14.9 °F 12.5 °F 30.01 in WSW 5.8 mph 2.3 mph 90% 0.00 in 0.00 W/m2
20:24 14.9 °F 12.5 °F 30.00 in WSW 4.6 mph 3.5 mph 90% 0.00 in 0.00 W/m2
20:29 14.8 °F 12.4 °F 30.01 in SW 3.5 mph 3.1 mph 90% 0.00 in 0.00 W/m2
20:34 14.7 °F 12.3 °F 30.01 in West 5.0 mph 3.7 mph 90% 0.00 in 0.00 W/m2
20:39 14.6 °F 12.2 °F 30.01 in WNW 4.6 mph 3.2 mph 90% 0.00 in 0.00 W/m2
20:44 14.4 °F 12.0 °F 30.01 in West 8.1 mph 6.2 mph 90% 0.00 in 0.00 W/m2
20:49 14.3 °F 11.9 °F 30.01 in North 5.0 mph 5.0 mph 90% 0.00 in 0.00 W/m2
20:54 14.1 °F 11.7 °F 30.01 in West 11.5 mph 3.6 mph 90% 0.00 in 0.00 W/m2
20:59 14.1 °F 11.7 °F 30.01 in North 8.1 mph 3.4 mph 90% 0.00 in 0.00 W/m2
21:04 14.1 °F 11.7 °F 30.01 in West 6.9 mph 5.1 mph 90% 0.00 in 0.00 W/m2
21:09 14.1 °F 11.7 °F 30.02 in North 11.5 mph 5.9 mph 90% 0.00 in 0.00 W/m2
21:14 14.1 °F 11.7 °F 30.01 in North 6.9 mph 5.0 mph 90% 0.00 in 0.00 W/m2
21:19 14.0 °F 11.6 °F 30.01 in West 11.5 mph 8.9 mph 90% 0.00 in 0.00 W/m2
21:24 14.0 °F 11.6 °F 30.02 in SW 8.1 mph 6.4 mph 90% 0.00 in 0.00 W/m2
21:29 13.9 °F 11.5 °F 30.02 in WSW 13.8 mph 5.6 mph 90% 0.00 in 0.00 W/m2
21:34 14.0 °F 11.6 °F 30.02 in WSW 12.7 mph 7.5 mph 90% 0.00 in 0.00 W/m2
21:39 14.0 °F 11.4 °F 30.02 in North 15.0 mph 8.8 mph 89% 0.00 in 0.00 W/m2
21:44 13.9 °F 11.3 °F 30.02 in North 11.5 mph 6.5 mph 89% 0.00 in 0.00 W/m2
21:49 13.9 °F 11.3 °F 30.02 in North 11.5 mph 7.0 mph 89% 0.00 in 0.00 W/m2
21:54 13.7 °F 11.1 °F 30.02 in NW 13.8 mph 5.9 mph 89% 0.00 in 0.00 W/m2
21:59 13.5 °F 10.6 °F 30.02 in WNW 19.6 mph 7.7 mph 88% 0.00 in 0.00 W/m2
22:04 13.3 °F 10.4 °F 30.02 in NW 11.5 mph 8.6 mph 88% 0.00 in 0.00 W/m2
22:09 13.1 °F 10.2 °F 30.02 in North 16.1 mph 7.6 mph 88% 0.00 in 0.00 W/m2
22:14 12.8 °F 9.9 °F 30.03 in North 15.0 mph 9.1 mph 88% 0.00 in 0.00 W/m2
22:19 12.5 °F 9.6 °F 30.02 in NW 13.0 mph 9.0 mph 88% 0.00 in 0.00 W/m2
22:24 12.2 °F 9.3 °F 30.02 in WNW 12.0 mph 7.8 mph 88% 0.00 in 0.00 W/m2
22:29 12.0 °F 9.1 °F 30.03 in NW 11.5 mph 6.5 mph 88% 0.00 in 0.00 W/m2
22:34 11.7 °F 8.6 °F 30.03 in WNW 15.0 mph 8.2 mph 87% 0.00 in 0.00 W/m2
22:39 11.4 °F 8.3 °F 30.04 in WNW 13.0 mph 7.7 mph 87% 0.00 in 0.00 W/m2
22:44 11.2 °F 8.1 °F 30.03 in NW 9.2 mph 4.4 mph 87% 0.00 in 0.00 W/m2
22:49 10.9 °F 7.8 °F 30.03 in West 13.8 mph 8.0 mph 87% 0.00 in 0.00 W/m2
22:54 10.6 °F 7.2 °F 30.03 in WNW 11.0 mph 7.4 mph 86% 0.00 in 0.00 W/m2
22:59 10.3 °F 6.9 °F 30.03 in North 12.7 mph 8.7 mph 86% 0.00 in 0.00 W/m2
23:04 10.1 °F 6.7 °F 30.04 in North 9.0 mph 5.5 mph 86% 0.00 in 0.00 W/m2
23:09 9.8 °F 6.5 °F 30.04 in North 11.5 mph 5.9 mph 86% 0.00 in 0.00 W/m2
23:14 9.6 °F 6.3 °F 30.05 in North 11.5 mph 3.9 mph 86% 0.00 in 0.00 W/m2
23:19 9.3 °F 6.0 °F 30.05 in West 11.5 mph 6.6 mph 86% 0.00 in 0.00 W/m2
23:24 9.0 °F 5.7 °F 30.05 in WNW 12.7 mph 6.4 mph 86% 0.00 in 0.00 W/m2
23:29 8.7 °F 5.4 °F 30.05 in NW 11.5 mph 5.1 mph 86% 0.00 in 0.00 W/m2
23:34 8.4 °F 4.8 °F 30.06 in NW 11.5 mph 4.6 mph 85% 0.00 in 0.00 W/m2
23:39 8.1 °F 4.8 °F 30.06 in WNW 10.4 mph 4.0 mph 86% 0.00 in 0.00 W/m2
23:44 7.9 °F 4.6 °F 30.06 in NW 10.4 mph 6.1 mph 86% 0.00 in 0.00 W/m2
23:49 7.6 °F 4.3 °F 30.07 in North 10.4 mph 4.9 mph 86% 0.00 in 0.00 W/m2
23:54 7.3 °F 3.7 °F 30.07 in WSW 11.5 mph 6.2 mph 85% 0.00 in 0.00 W/m2
23:59 6.9 °F 3.3 °F 30.07 in North 9.2 mph 6.6 mph 85% 0.00 in 0.00 W/m2
Bourbonnais, Illinois, USA
Compliments of Weather Underground - 2 mb